Time;durP1;ratioP1;P1;durP2;ratioP2;P2;SDS_P1;SDS_P2;PMS_P1;PMS_P2;Temp;Humidity;BMP_temperature;BMP_pressure;BME280_temperature;BME280_humidity;BME280_pressure;Samples;Min_cycle;Max_cycle;Signal;HPM_P1;HPM_P2
2022/03/05 00:01:17;;;;;;;14.60;10.88;;;;;;;2.55;52.85;99473.75;5047634;28;20041;-69
2022/03/05 00:03:49;;;;;;;15.20;10.70;;;;;;;2.90;51.98;99538.44;5047226;28;20042;-69
2022/03/05 00:06:21;;;;;;;16.27;10.15;;;;;;;2.93;52.17;99532.28;5046451;28;20042;-69
2022/03/05 00:08:53;;;;;;;19.17;10.50;;;;;;;2.88;52.57;99525.41;5047234;28;20046;-69
2022/03/05 00:11:25;;;;;;;15.30;11.00;;;;;;;2.83;52.48;99523.78;5047144;28;20052;-69
2022/03/05 00:13:57;;;;;;;17.88;12.00;;;;;;;2.86;53.16;99524.56;5046973;28;20040;-69
2022/03/05 00:16:25;;;;;;;14.70;9.93;;;;;;;2.91;52.46;99526.22;5047050;28;20051;-69
2022/03/05 00:18:56;;;;;;;17.98;11.63;;;;;;;2.86;53.01;99527.19;5047242;28;20045;-69
2022/03/05 00:21:26;;;;;;;15.88;10.95;;;;;;;2.44;52.96;99462.66;5047229;28;20229;-69
2022/03/05 00:23:56;;;;;;;19.15;11.80;;;;;;;2.83;52.91;99522.00;5046794;28;20048;-69
2022/03/05 00:26:26;;;;;;;19.98;11.82;;;;;;;2.87;53.10;99522.81;5046073;28;20248;-69
2022/03/05 00:28:57;;;;;;;18.08;11.63;;;;;;;2.94;52.10;99526.16;5046777;28;20309;-69
2022/03/05 00:31:26;;;;;;;19.00;11.55;;;;;;;2.96;52.25;99519.13;5045999;28;20300;-69
2022/03/05 00:33:56;;;;;;;20.42;11.02;;;;;;;2.93;53.00;99517.44;5046952;28;20041;-69
2022/03/05 00:36:26;;;;;;;19.20;13.15;;;;;;;2.87;52.63;99514.97;5046616;28;20048;-69
2022/03/05 00:38:57;;;;;;;15.40;10.52;;;;;;;2.85;52.60;99515.00;5046828;28;20041;-69
2022/03/05 00:41:27;;;;;;;21.45;13.55;;;;;;;2.84;52.46;99513.25;5046845;28;20068;-69
2022/03/05 00:43:58;;;;;;;17.48;11.85;;;;;;;2.77;52.98;99511.66;5046325;28;20100;-69
2022/03/05 00:46:27;;;;;;;17.45;12.50;;;;;;;2.75;53.70;99512.59;5046410;28;20083;-69
2022/03/05 00:48:57;;;;;;;18.80;12.07;;;;;;;2.72;53.08;99508.28;5046366;28;20042;-69
2022/03/05 00:51:27;;;;;;;14.35;10.63;;;;;;;2.73;52.91;99509.16;5046349;28;20041;-68
2022/03/05 00:53:58;;;;;;;18.35;11.43;;;;;;;2.75;52.77;99513.47;5046097;28;20111;-69
2022/03/05 00:56:28;;;;;;;18.75;12.13;;;;;;;2.75;53.05;99509.97;5046227;28;20041;-69
2022/03/05 00:59:00;;;;;;;18.90;12.40;;;;;;;2.79;53.05;99515.13;5046440;28;20087;-69
2022/03/05 01:01:28;;;;;;;17.42;11.75;;;;;;;2.79;53.15;99515.13;5046408;28;20041;-69
2022/03/05 01:03:58;;;;;;;18.38;11.88;;;;;;;2.78;52.90;99516.00;5046291;28;20052;-69
2022/03/05 01:06:30;;;;;;;21.38;12.60;;;;;;;2.76;52.77;99509.09;5046371;28;20087;-69
2022/03/05 01:08:59;;;;;;;18.30;12.35;;;;;;;2.73;53.54;99511.78;5046278;28;20053;-69
2022/03/05 01:11:28;;;;;;;22.73;13.80;;;;;;;2.72;53.42;99510.91;5046534;28;20053;-69
2022/03/05 01:14:00;;;;;;;17.13;12.38;;;;;;;2.71;53.73;99518.78;5046246;28;20049;-69
2022/03/05 01:16:28;;;;;;;20.25;14.23;;;;;;;2.68;53.22;99518.84;5046228;28;20044;-69
2022/03/05 01:18:58;;;;;;;19.98;12.70;;;;;;;2.63;53.22;99512.84;5045880;28;20104;-69
2022/03/05 01:21:29;;;;;;;21.05;13.60;;;;;;;2.59;54.00;99517.28;5046355;28;20075;-69
2022/03/05 01:23:59;;;;;;;19.90;13.35;;;;;;;2.59;53.59;99513.81;5045558;28;20045;-68
2022/03/05 01:26:30;;;;;;;19.15;11.85;;;;;;;2.62;53.22;99513.75;5046012;28;20048;-69
2022/03/05 01:29:00;;;;;;;16.40;11.45;;;;;;;2.60;53.42;99524.25;5046032;28;20044;-69
2022/03/05 01:31:29;;;;;;;21.38;12.70;;;;;;;2.60;53.93;99528.63;5045974;28;20041;-69
2022/03/05 01:33:59;;;;;;;21.42;13.32;;;;;;;2.62;53.43;99524.22;5046205;28;20045;-69
2022/03/05 01:36:29;;;;;;;19.85;12.55;;;;;;;2.60;53.65;99524.25;5045617;28;20056;-69
2022/03/05 01:39:00;;;;;;;19.08;12.55;;;;;;;2.61;53.68;99515.50;5045848;28;20041;-69
2022/03/05 01:41:30;;;;;;;22.35;13.45;;;;;;;2.62;54.01;99518.97;5045612;28;20048;-69
2022/03/05 01:44:01;;;;;;;19.67;12.55;;;;;;;2.60;54.01;99513.78;5045694;28;20053;-69
2022/03/05 01:46:32;;;;;;;22.67;12.77;;;;;;;2.64;53.55;99514.56;5045577;28;20045;-69
2022/03/05 01:49:00;;;;;;;16.95;12.35;;;;;;;2.64;53.77;99515.44;5046087;28;20042;-69
2022/03/05 01:51:30;;;;;;;18.27;13.02;;;;;;;2.46;53.36;99485.28;5045994;28;20037;-69
2022/03/05 01:54:01;;;;;;;21.98;14.07;;;;;;;2.67;53.29;99520.59;5045284;28;20053;-69
2022/03/05 01:56:32;;;;;;;20.63;13.38;;;;;;;2.65;53.21;99517.16;5045932;28;20060;-69
2022/03/05 01:59:02;;;;;;;21.27;13.00;;;;;;;2.63;53.73;99511.09;5045643;28;20084;-68
2022/03/05 02:01:31;;;;;;;21.92;14.75;;;;;;;2.61;53.68;99506.78;5045644;28;20037;-69
2022/03/05 02:04:01;;;;;;;18.38;12.02;;;;;;;2.60;53.71;99510.31;5045517;28;20061;-69
2022/03/05 02:06:31;;;;;;;17.15;11.95;;;;;;;2.61;53.78;99512.03;5045584;28;20068;-69
2022/03/05 02:09:01;;;;;;;17.58;12.18;;;;;;;2.48;53.88;99482.63;5045518;28;20060;-69
2022/03/05 02:11:31;;;;;;;17.30;12.80;;;;;;;2.64;53.76;99509.34;5045593;28;20048;-69
2022/03/05 02:14:03;;;;;;;22.52;13.95;;;;;;;2.61;54.11;99514.63;5045394;28;20048;-69
2022/03/05 02:16:31;;;;;;;20.17;14.18;;;;;;;2.62;54.02;99517.22;5045133;28;20041;-69
2022/03/05 02:19:03;;;;;;;18.65;11.80;;;;;;;2.60;54.43;99515.53;5045324;28;20042;-69
2022/03/05 02:21:33;;;;;;;17.88;11.30;;;;;;;2.60;55.19;99510.31;5045367;28;20332;-69
2022/03/05 02:24:02;;;;;;;19.80;13.45;;;;;;;2.54;54.93;99511.28;5045368;28;20240;-69
2022/03/05 02:26:32;;;;;;;23.90;14.02;;;;;;;2.55;55.17;99508.63;5045168;28;20290;-69
2022/03/05 02:29:02;;;;;;;18.88;13.00;;;;;;;2.62;54.75;99509.38;5045327;28;20297;-69
2022/03/05 02:31:32;;;;;;;19.48;13.63;;;;;;;2.64;54.76;99507.59;5045318;28;20317;-69
2022/03/05 02:34:02;;;;;;;18.75;11.60;;;;;;;2.66;54.73;99510.19;5045372;28;20064;-68
2022/03/05 02:36:34;;;;;;;18.95;12.93;;;;;;;2.62;55.17;99508.50;5046720;28;20041;-68
2022/03/05 02:39:02;;;;;;;20.85;12.63;;;;;;;2.66;55.34;99507.56;5049153;28;20029;-69
2022/03/05 02:41:33;;;;;;;20.98;14.27;;;;;;;2.61;55.08;99505.03;5048852;28;20037;-69
2022/03/05 02:44:03;;;;;;;18.95;14.15;;;;;;;2.65;54.95;99513.69;5049598;28;20045;-69
2022/03/05 02:46:34;;;;;;;19.35;13.20;;;;;;;2.68;55.04;99511.00;5049053;28;20048;-68
2022/03/05 02:49:04;;;;;;;17.85;13.25;;;;;;;2.68;54.93;99506.63;5048735;28;20048;-68
2022/03/05 02:51:35;;;;;;;20.80;13.20;;;;;;;2.63;55.30;99510.25;5049271;28;20044;-69
2022/03/05 02:54:03;;;;;;;21.38;13.70;;;;;;;2.61;55.22;99506.78;5048573;28;20180;-69
2022/03/05 02:56:33;;;;;;;18.95;14.07;;;;;;;2.57;56.01;99510.38;5049114;28;20045;-68
2022/03/05 02:59:04;;;;;;;20.08;11.95;;;;;;;2.58;55.48;99512.09;5048491;28;20041;-69
2022/03/05 03:01:34;;;;;;;21.77;14.43;;;;;;;2.55;56.27;99505.16;5048736;28;20029;-69
2022/03/05 03:04:04;;;;;;;18.58;13.73;;;;;;;2.56;55.21;99512.13;5048379;28;20041;-69
2022/03/05 03:06:35;;;;;;;22.38;14.65;;;;;;;2.56;55.07;99512.13;5049212;28;20029;-69
2022/03/05 03:09:04;;;;;;;19.13;13.25;;;;;;;2.55;55.25;99516.50;5048360;28;20088;-69
2022/03/05 03:11:34;;;;;;;17.38;12.50;;;;;;;2.59;54.96;99512.06;5048278;28;20049;-69
2022/03/05 03:14:04;;;;;;;18.08;12.85;;;;;;;2.63;54.81;99510.25;5048479;28;20056;-69
2022/03/05 03:16:34;;;;;;;20.58;13.40;;;;;;;2.61;54.83;99515.50;5048439;28;20056;-69
2022/03/05 03:19:04;;;;;;;19.50;13.38;;;;;;;2.56;55.23;99512.13;5048633;28;20045;-69
2022/03/05 03:21:36;;;;;;;21.05;13.30;;;;;;;2.56;55.11;99514.72;5048385;28;20037;-69
2022/03/05 03:24:05;;;;;;;21.75;14.75;;;;;;;2.48;55.51;99512.28;5048498;28;20045;-69
2022/03/05 03:26:35;;;;;;;21.27;12.73;;;;;;;2.49;55.14;99511.38;5048835;28;20040;-69
2022/03/05 03:29:05;;;;;;;17.33;11.65;;;;;;;2.51;55.12;99514.81;5048496;28;20083;-69
2022/03/05 03:31:35;;;;;;;20.67;12.48;;;;;;;2.55;54.96;99510.41;5047927;28;20049;-69
2022/03/05 03:34:05;;;;;;;18.33;12.73;;;;;;;2.52;55.08;99513.06;5048116;28;20053;-69
2022/03/05 03:36:37;;;;;;;21.88;13.50;;;;;;;2.51;55.68;99514.81;5047831;28;20041;-69
2022/03/05 03:39:05;;;;;;;21.40;13.05;;;;;;;2.48;55.31;99514.03;5047981;28;20210;-69
2022/03/05 03:41:35;;;;;;;19.90;13.27;;;;;;;2.47;55.72;99518.41;5047748;28;20247;-69
2022/03/05 03:44:06;;;;;;;21.67;13.50;;;;;;;2.47;55.53;99514.91;5047634;28;20204;-69
2022/03/05 03:46:36;;;;;;;22.02;13.52;;;;;;;1.68;56.01;99385.75;5047233;28;20323;-69
2022/03/05 03:49:06;;;;;;;21.75;14.52;;;;;;;2.48;55.61;99507.03;5047823;28;20289;-69
2022/03/05 03:51:37;;;;;;;17.88;12.35;;;;;;;2.48;56.12;99511.41;5048087;28;20063;-69
2022/03/05 03:54:06;;;;;;;24.20;14.82;;;;;;;1.79;55.63;99422.97;5047384;28;20049;-69
2022/03/05 03:56:36;;;;;;;20.85;13.52;;;;;;;2.48;55.40;99503.56;5047349;28;20037;-69
2022/03/05 03:59:06;;;;;;;20.88;11.77;;;;;;;1.91;56.34;99422.75;5047357;28;20048;-69
2022/03/05 04:01:36;;;;;;;19.20;14.25;;;;;;;2.40;56.07;99500.25;5048129;28;20033;-69
2022/03/05 04:04:06;;;;;;;23.15;15.13;;;;;;;2.42;55.65;99503.69;5047487;28;20041;-69
2022/03/05 04:09:28;;;;;;;20.73;13.20;;;;;;;2.34;55.88;99509.06;5047398;28;20213;-69
2022/03/05 04:12:00;;;;;;;17.60;13.73;;;;;;;2.36;55.80;99503.81;5047176;28;20212;-69
2022/03/05 04:14:32;;;;;;;20.58;14.60;;;;;;;2.32;56.04;99505.63;5047357;28;20052;-69
2022/03/05 04:17:05;;;;;;;19.15;14.55;;;;;;;1.76;55.71;99416.06;5047321;28;20049;-69
2022/03/05 04:19:37;;;;;;;19.42;13.85;;;;;;;2.31;55.88;99510.88;5047230;28;20057;-69
2022/03/05 04:22:11;;;;;;;23.27;14.18;;;;;;;2.32;55.90;99515.22;5047212;28;20049;-69
2022/03/05 04:24:44;;;;;;;19.33;14.03;;;;;;;2.24;55.87;99504.91;5046071;28;20053;-69
2022/03/05 04:27:16;;;;;;;21.20;14.25;;;;;;;2.22;56.07;99515.41;5046357;28;20037;-69
2022/03/05 04:29:49;;;;;;;21.33;13.98;;;;;;;2.22;55.91;99517.16;5047100;28;20053;-69
2022/03/05 04:32:21;;;;;;;21.20;14.13;;;;;;;2.18;56.03;99518.09;5046993;28;20049;-69
2022/03/05 04:34:53;;;;;;;18.42;13.40;;;;;;;2.18;56.27;99521.56;5047008;28;20045;-69
2022/03/05 04:37:27;;;;;;;17.88;13.43;;;;;;;2.19;55.88;99523.28;5046712;28;20049;-69
2022/03/05 04:39:59;;;;;;;20.45;14.15;;;;;;;2.16;56.02;99525.09;5046635;28;20042;-69
2022/03/05 04:42:32;;;;;;;19.77;13.35;;;;;;;2.12;55.94;99524.31;5046811;28;20052;-69
2022/03/05 04:45:07;;;;;;;16.95;13.48;;;;;;;2.13;55.97;99528.63;5046638;28;20050;-69
2022/03/05 04:47:40;;;;;;;20.38;14.07;;;;;;;2.11;55.88;99534.78;5046460;28;20037;-69
2022/03/05 04:50:12;;;;;;;19.67;13.73;;;;;;;2.07;56.10;99525.28;5046406;28;20041;-69
2022/03/05 04:52:47;;;;;;;20.40;13.20;;;;;;;2.03;56.94;99527.09;5046102;28;20044;-69
2022/03/05 04:55:19;;;;;;;;;;;;;;;1.93;58.91;99525.53;5046769;28;20049;-68
2022/03/05 04:57:51;;;;;;;22.20;14.68;;;;;;;1.96;56.44;99535.06;5062074;28;19917;-69
2022/03/05 05:00:24;;;;;;;20.33;13.25;;;;;;;2.02;56.53;99532.34;5045933;28;20041;-69
2022/03/05 05:02:56;;;;;;;23.88;15.52;;;;;;;2.04;56.47;99528.81;5046184;28;20041;-69
2022/03/05 05:05:28;;;;;;;22.40;13.68;;;;;;;2.07;56.24;99538.34;5046065;28;20209;-69
2022/03/05 05:08:02;;;;;;;22.10;15.70;;;;;;;2.01;57.06;99539.31;5046090;28;20052;-69
2022/03/05 05:10:34;;;;;;;18.80;13.23;;;;;;;2.01;56.31;99541.94;5046094;28;20049;-69
2022/03/05 05:13:07;;;;;;;20.40;13.45;;;;;;;1.97;56.97;99545.50;5046283;28;20037;-68
2022/03/05 05:15:39;;;;;;;22.90;14.55;;;;;;;1.98;56.53;99541.13;5045986;28;20052;-69
2022/03/05 05:18:12;;;;;;;20.17;14.02;;;;;;;1.99;56.70;99546.31;5046193;28;20042;-69
2022/03/05 05:20:44;;;;;;;24.65;14.73;;;;;;;1.96;56.59;99538.53;5046170;28;20048;-68
2022/03/05 05:23:18;;;;;;;25.85;16.38;;;;;;;1.97;56.75;99544.63;5045837;28;20048;-69
2022/03/05 05:25:50;;;;;;;22.92;14.75;;;;;;;1.99;56.59;99546.31;5046032;28;20224;-69
2022/03/05 05:28:22;;;;;;;20.55;14.05;;;;;;;2.05;56.24;99540.97;5046045;28;20060;-68
2022/03/05 05:30:54;;;;;;;21.20;13.75;;;;;;;2.05;56.58;99545.34;5046001;28;20041;-69
2022/03/05 05:33:27;;;;;;;19.25;13.05;;;;;;;2.07;56.14;99546.19;5045693;28;20216;-68
2022/03/05 05:35:59;;;;;;;23.65;14.02;;;;;;;1.98;56.58;99536.75;5045945;28;20046;-68
2022/03/05 05:38:33;;;;;;;22.38;15.15;;;;;;;1.97;57.11;99540.25;5045914;28;20048;-69
2022/03/05 05:41:05;;;;;;;16.20;12.68;;;;;;;1.95;56.65;99549.00;5045876;28;20285;-69
2022/03/05 05:43:37;;;;;;;20.58;13.30;;;;;;;1.97;56.69;99545.50;5045746;28;20052;-69
2022/03/05 05:46:11;;;;;;;19.63;14.98;;;;;;;1.97;56.46;99540.25;5045391;28;20041;-68
2022/03/05 05:48:43;;;;;;;20.15;13.80;;;;;;;2.00;56.49;99553.28;5045447;28;20037;-68
2022/03/05 05:51:15;;;;;;;19.27;14.05;;;;;;;1.96;56.72;99545.50;5045345;28;20045;-68
2022/03/05 05:53:49;;;;;;;21.65;13.98;;;;;;;1.94;57.24;99539.44;5045221;28;20057;-69
2022/03/05 05:56:22;;;;;;;21.45;14.45;;;;;;;1.99;57.11;99548.06;5045415;28;20213;-69
2022/03/05 05:58:54;;;;;;;18.90;12.85;;;;;;;2.06;56.63;99547.06;5045703;28;20312;-69
2022/03/05 06:01:27;;;;;;;21.90;15.10;;;;;;;2.05;56.59;99545.34;5045657;28;20042;-69
2022/03/05 06:03:59;;;;;;;26.27;17.90;;;;;;;2.03;56.61;99550.59;5045305;28;20041;-68
2022/03/05 06:06:31;;;;;;;26.55;16.45;;;;;;;2.06;56.36;99540.09;5045247;28;20042;-69
2022/03/05 06:09:05;;;;;;;25.88;15.43;;;;;;;2.06;56.91;99547.94;5045271;28;20041;-69
2022/03/05 06:11:37;;;;;;;18.75;13.90;;;;;;;2.08;56.46;99546.16;5048888;28;20041;-69
2022/03/05 06:14:07;;;;;;;21.23;15.00;;;;;;;2.11;56.27;99545.25;5048528;28;20045;-69
2022/03/05 06:16:38;;;;;;;22.95;14.48;;;;;;;2.12;56.53;99554.81;5049600;28;20049;-69
2022/03/05 06:19:08;;;;;;;19.83;14.55;;;;;;;2.13;56.23;99554.78;5049260;28;20042;-69
2022/03/05 06:21:38;;;;;;;20.27;13.95;;;;;;;2.14;56.29;99559.13;5049525;28;20061;-69
2022/03/05 06:24:09;;;;;;;24.40;17.17;;;;;;;2.10;56.47;99561.81;5049485;28;20064;-67
2022/03/05 06:26:38;;;;;;;22.58;15.50;;;;;;;2.11;56.51;99563.53;5049345;28;20292;-69
2022/03/05 06:29:08;;;;;;;20.90;14.52;;;;;;;2.12;56.57;99554.81;5049408;28;20256;-70
2022/03/05 06:31:38;;;;;;;20.80;13.80;;;;;;;2.16;56.53;99565.19;5049056;28;20201;-69
2022/03/05 06:34:08;;;;;;;24.80;14.25;;;;;;;2.17;56.36;99573.91;5049993;28;20281;-69
2022/03/05 06:36:38;;;;;;;20.77;13.38;;;;;;;2.18;56.33;99568.63;5048900;28;20182;-69
2022/03/05 06:39:10;;;;;;;19.85;13.02;;;;;;;2.22;56.44;99569.44;5048895;28;20044;-69
2022/03/05 06:41:39;;;;;;;23.30;14.88;;;;;;;2.05;56.09;99538.38;5048077;28;20041;-69
2022/03/05 06:44:09;;;;;;;21.35;14.27;;;;;;;2.02;56.12;99527.97;5049033;28;20041;-69
2022/03/05 06:46:39;;;;;;;20.98;13.30;;;;;;;2.32;56.24;99576.25;5048677;28;20042;-69
2022/03/05 06:49:09;;;;;;;21.33;14.38;;;;;;;2.36;55.93;99566.56;5048878;28;20041;-69
2022/03/05 06:51:39;;;;;;;27.55;20.80;;;;;;;2.45;56.13;99572.50;5048575;28;20042;-68
2022/03/05 06:54:11;;;;;;;26.92;18.63;;;;;;;2.44;55.98;99575.16;5048534;28;20060;-68
2022/03/05 06:56:40;;;;;;;22.77;15.82;;;;;;;2.46;56.26;99578.59;5048528;28;20045;-68
2022/03/05 06:59:09;;;;;;;18.45;13.50;;;;;;;2.43;56.03;99578.66;5048732;28;20060;-68
2022/03/05 07:01:40;;;;;;;23.45;13.73;;;;;;;2.45;55.82;99572.50;5048474;28;20037;-69
2022/03/05 07:04:10;;;;;;;18.90;13.15;;;;;;;2.47;56.03;99577.72;5047861;28;20049;-69
2022/03/05 07:06:40;;;;;;;20.58;14.23;;;;;;;2.48;55.96;99577.69;5049039;28;20040;-69
2022/03/05 07:09:11;;;;;;;23.40;15.02;;;;;;;2.50;56.08;99581.13;5048352;28;20060;-68
2022/03/05 07:11:41;;;;;;;21.95;14.70;;;;;;;2.58;55.66;99578.38;5048376;28;20048;-68
2022/03/05 07:14:10;;;;;;;17.75;13.07;;;;;;;2.60;55.71;99573.09;5048709;28;20041;-69
2022/03/05 07:16:40;;;;;;;19.33;12.48;;;;;;;2.65;55.57;99572.13;5048388;28;20049;-69
2022/03/05 07:19:10;;;;;;;21.33;12.57;;;;;;;2.69;55.85;99573.78;5048185;28;20041;-69
2022/03/05 07:21:41;;;;;;;18.52;13.50;;;;;;;2.73;55.69;99578.06;5047064;28;20041;-68
2022/03/05 07:24:13;;;;;;;21.60;13.30;;;;;;;2.76;55.26;99566.66;5047736;28;20095;-68
2022/03/05 07:26:41;;;;;;;20.67;13.27;;;;;;;2.76;55.88;99572.75;5047910;28;20060;-68
2022/03/05 07:29:11;;;;;;;21.02;13.10;;;;;;;2.79;55.53;99577.94;5048001;28;20038;-69
2022/03/05 07:31:41;;;;;;;22.42;15.88;;;;;;;2.80;55.45;99573.56;5047821;28;20041;-69
2022/03/05 07:34:11;;;;;;;19.00;12.27;;;;;;;2.84;55.73;99583.94;5047847;28;20052;-69
2022/03/05 07:36:41;;;;;;;19.77;13.55;;;;;;;2.93;55.19;99582.03;5047593;28;20045;-68
2022/03/05 07:39:13;;;;;;;20.92;14.02;;;;;;;2.99;55.09;99576.66;5047690;28;20084;-69
2022/03/05 07:41:42;;;;;;;21.80;13.35;;;;;;;3.02;55.02;99580.09;5047655;28;20060;-69
2022/03/05 07:44:12;;;;;;;21.00;14.35;;;;;;;1.81;55.30;99379.38;5047234;28;20041;-68
2022/03/05 07:46:42;;;;;;;22.75;14.52;;;;;;;2.95;54.80;99547.06;5047597;28;20044;-68
2022/03/05 07:49:12;;;;;;;16.83;13.38;;;;;;;3.23;54.67;99580.53;5047384;28;20049;-69
2022/03/05 07:51:42;;;;;;;21.05;12.82;;;;;;;2.48;54.69;99456.47;5047338;28;20049;-69
2022/03/05 07:54:14;;;;;;;18.38;10.93;;;;;;;3.28;54.57;99576.03;5046759;28;20049;-68
2022/03/05 07:56:43;;;;;;;18.20;12.25;;;;;;;3.34;54.32;99573.28;5047304;28;20037;-69
2022/03/05 07:59:12;;;;;;;23.55;14.55;;;;;;;3.43;54.04;99571.31;5046885;28;20121;-69
2022/03/05 08:01:42;;;;;;;16.95;11.50;;;;;;;3.51;53.68;99579.00;5046846;28;20041;-69
2022/03/05 08:04:13;;;;;;;18.48;13.85;;;;;;;3.57;53.44;99568.38;5046874;28;20061;-68
2022/03/05 08:06:43;;;;;;;19.02;12.25;;;;;;;3.63;53.42;99568.22;5046900;28;20053;-69
2022/03/05 08:09:14;;;;;;;18.55;12.43;;;;;;;3.71;53.31;99573.28;5046899;28;20049;-69
2022/03/05 08:11:43;;;;;;;16.92;11.10;;;;;;;3.77;53.43;99574.00;5046484;28;20041;-69
2022/03/05 08:14:13;;;;;;;13.52;10.38;;;;;;;3.82;53.23;99571.28;5046115;28;20041;-69
2022/03/05 08:16:43;;;;;;;18.42;12.63;;;;;;;3.90;53.16;99577.19;5046517;28;20045;-69
2022/03/05 08:19:14;;;;;;;19.42;13.30;;;;;;;3.99;53.21;99576.09;5046705;28;20193;-69
2022/03/05 08:21:44;;;;;;;19.77;12.55;;;;;;;4.00;52.87;99576.06;5046693;28;20041;-69
2022/03/05 08:24:16;;;;;;;17.52;11.32;;;;;;;3.94;52.78;99555.25;5046615;28;20041;-69
2022/03/05 08:26:44;;;;;;;17.35;11.38;;;;;;;4.15;52.63;99577.44;5046039;28;20320;-69
2022/03/05 08:29:15;;;;;;;20.75;11.65;;;;;;;4.22;52.41;99578.19;5046403;28;20088;-69
2022/03/05 08:31:45;;;;;;;16.23;11.65;;;;;;;4.28;52.35;99578.03;5046540;28;20104;-69
2022/03/05 08:34:15;;;;;;;20.02;12.95;;;;;;;4.33;52.29;99578.75;5045384;28;20041;-69
2022/03/05 08:36:47;;;;;;;15.90;12.32;;;;;;;4.37;52.16;99583.03;5046544;28;20064;-69
2022/03/05 08:39:18;;;;;;;17.48;12.27;;;;;;;4.38;51.91;99582.97;5046340;28;20048;-69
2022/03/05 08:41:46;;;;;;;19.77;12.75;;;;;;;4.37;51.83;99588.28;5045975;28;20201;-69
2022/03/05 08:44:16;;;;;;;18.63;12.10;;;;;;;4.40;51.87;99583.81;5045920;28;20049;-69
2022/03/05 08:46:47;;;;;;;18.67;13.20;;;;;;;4.46;52.07;99577.53;5045966;28;20045;-69
2022/03/05 08:49:17;;;;;;;15.65;11.60;;;;;;;4.59;52.17;99583.31;5046028;28;20354;-69
2022/03/05 08:51:47;;;;;;;20.08;14.60;;;;;;;4.68;51.57;99583.06;5045991;28;20037;-69
2022/03/05 08:54:20;;;;;;;14.68;10.27;;;;;;;4.71;51.52;99578.59;5045684;28;20099;-69
2022/03/05 08:56:48;;;;;;;18.67;12.52;;;;;;;4.91;51.18;99579.81;5046038;28;20049;-69
2022/03/05 08:59:19;;;;;;;17.15;10.50;;;;;;;5.13;50.73;99566.00;5046390;28;20277;-69
2022/03/05 09:01:48;;;;;;;18.95;14.00;;;;;;;5.39;50.37;99593.28;5045128;28;20087;-69
2022/03/05 09:04:18;;;;;;;17.83;12.13;;;;;;;5.62;50.29;99569.75;5045977;28;20038;-69
2022/03/05 09:06:49;;;;;;;21.45;13.88;;;;;;;5.95;49.78;99580.97;5045560;28;20181;-69
2022/03/05 09:09:20;;;;;;;19.63;11.82;;;;;;;6.30;49.14;99566.63;5044821;28;20041;-69
2022/03/05 09:11:49;;;;;;;19.95;13.43;;;;;;;6.45;48.21;99531.00;5045851;28;20044;-69
2022/03/05 09:14:19;;;;;;;16.88;12.15;;;;;;;6.83;48.03;99557.78;5045530;28;20201;-69
2022/03/05 09:16:50;;;;;;;19.98;11.65;;;;;;;7.03;47.56;99556.13;5045899;28;20041;-69
2022/03/05 09:19:20;;;;;;;17.38;11.90;;;;;;;7.16;47.51;99555.66;5045773;28;20314;-69
2022/03/05 09:21:50;;;;;;;23.73;15.65;;;;;;;7.27;47.20;99556.09;5045562;28;20208;-69
2022/03/05 09:24:22;;;;;;;17.73;11.65;;;;;;;7.35;47.10;99560.19;5045224;28;20083;-69
2022/03/05 09:26:51;;;;;;;17.73;11.95;;;;;;;6.92;47.17;99526.69;5044991;28;20087;-69
2022/03/05 09:29:21;;;;;;;18.42;12.73;;;;;;;7.05;47.50;99551.66;5045651;28;20096;-70
2022/03/05 09:31:52;;;;;;;19.15;12.52;;;;;;;7.23;47.05;99565.03;5045469;28;20091;-70
2022/03/05 09:34:21;;;;;;;17.90;11.90;;;;;;;7.23;46.87;99562.41;5045663;28;20049;-70
2022/03/05 09:36:52;;;;;;;16.70;11.73;;;;;;;7.22;47.07;99558.91;5045480;28;20285;-70
2022/03/05 09:39:23;;;;;;;19.20;13.18;;;;;;;7.03;45.81;99563.16;5045555;28;20045;-70
2022/03/05 09:41:54;;;;;;;18.20;12.55;;;;;;;6.51;46.76;99477.28;5045105;28;20042;-70
2022/03/05 09:44:22;;;;;;;17.25;11.93;;;;;;;7.16;46.87;99563.56;5044844;28;20178;-70
2022/03/05 09:46:54;;;;;;;19.42;13.32;;;;;;;7.26;46.80;99571.06;5044544;28;20045;-70
2022/03/05 09:49:27;;;;;;;18.58;12.55;;;;;;;7.29;46.89;99570.09;5045418;28;20049;-70
2022/03/05 09:52:00;;;;;;;17.60;11.70;;;;;;;7.39;46.19;99568.84;5045021;28;20075;-70
2022/03/05 09:54:30;;;;;;;16.52;12.38;;;;;;;7.46;45.72;99562.41;5044960;28;20309;-69
2022/03/05 09:56:59;;;;;;;19.63;14.25;;;;;;;7.28;45.77;99574.50;5045080;28;20045;-69
2022/03/05 09:59:29;;;;;;;20.70;13.65;;;;;;;6.92;46.49;99570.59;5045231;28;20049;-69
2022/03/05 10:02:00;;;;;;;21.48;14.50;;;;;;;6.87;46.87;99568.13;5045001;28;20041;-69
2022/03/05 10:04:30;;;;;;;18.65;13.27;;;;;;;6.88;46.98;99575.13;5045051;28;20052;-69
2022/03/05 10:07:11;;;;;;;22.90;14.85;;;;;;;6.97;46.07;99573.94;5044727;28;20201;-70
2022/03/05 10:09:46;;;;;;;18.15;12.40;;;;;;;6.95;46.15;99575.75;5044867;28;20037;-70
2022/03/05 10:12:30;;;;;;;19.45;14.18;;;;;;;6.97;45.03;99572.16;5044505;28;20064;-69
2022/03/05 10:15:08;;;;;;;20.45;12.98;;;;;;;5.80;45.17;99351.78;5043800;28;20041;-69
2022/03/05 10:17:52;;;;;;;18.80;12.63;;;;;;;6.97;44.74;99529.13;5044657;28;20049;-69
2022/03/05 10:20:26;;;;;;;18.50;12.13;;;;;;;7.15;45.88;99567.97;5044929;28;20049;-69
2022/03/05 10:23:02;;;;;;;18.48;13.25;;;;;;;7.00;45.76;99572.03;5044474;28;20053;-69
2022/03/05 10:25:39;;;;;;;17.75;12.32;;;;;;;6.98;45.13;99567.75;5044917;28;20048;-69
2022/03/05 10:28:13;;;;;;;17.48;11.88;;;;;;;6.85;45.70;99564.69;5044582;28;20061;-69
2022/03/05 10:30:47;;;;;;;14.32;10.63;;;;;;;6.72;45.37;99566.88;5044440;28;20037;-69
2022/03/05 10:33:31;;;;;;;20.42;13.77;;;;;;;6.90;44.65;99561.91;5043800;28;20061;-68
2022/03/05 10:36:06;;;;;;;21.67;14.63;;;;;;;7.15;44.69;99557.44;5043540;28;20100;-69
2022/03/05 10:38:49;;;;;;;20.83;13.82;;;;;;;7.17;43.70;99562.63;5044665;28;20041;-69
2022/03/05 10:41:33;;;;;;;19.42;12.23;;;;;;;7.26;44.08;99562.28;5060169;28;20049;-69
2022/03/05 10:44:06;;;;;;;17.92;12.02;;;;;;;7.27;44.63;99556.09;5044812;28;20091;-69
2022/03/05 10:46:40;;;;;;;19.17;12.45;;;;;;;6.91;45.72;99529.38;5044456;28;20091;-69
2022/03/05 10:49:16;;;;;;;15.38;11.85;;;;;;;6.95;45.29;99552.03;5043675;28;20092;-69
2022/03/05 10:51:50;;;;;;;16.30;11.73;;;;;;;6.94;45.23;99550.31;5044605;28;20340;-69
2022/03/05 10:54:28;;;;;;;17.13;12.53;;;;;;;6.75;45.17;99545.72;5044162;28;20058;-69
2022/03/05 10:57:07;;;;;;;17.08;12.73;;;;;;;6.74;44.80;99545.75;5045057;28;20087;-70
2022/03/05 10:59:41;;;;;;;19.63;12.45;;;;;;;6.73;46.08;99550.16;5047960;28;20124;-69
2022/03/05 11:02:15;;;;;;;17.80;11.90;;;;;;;6.65;45.79;99539.06;5047682;28;20041;-70
2022/03/05 11:04:48;;;;;;;18.40;13.23;;;;;;;6.61;45.99;99542.72;5046967;28;20116;-69
2022/03/05 11:07:23;;;;;;;19.35;12.07;;;;;;;6.61;45.91;99547.13;5047753;28;20045;-69
2022/03/05 11:09:57;;;;;;;18.67;12.20;;;;;;;6.48;46.01;99543.22;5047914;28;20091;-69
2022/03/05 11:12:33;;;;;;;16.50;11.73;;;;;;;6.39;46.30;99547.88;5048064;28;20100;-69
2022/03/05 11:15:08;;;;;;;20.77;12.02;;;;;;;6.21;46.42;99508.19;5048059;28;20045;-70
2022/03/05 11:17:41;;;;;;;14.95;10.55;;;;;;;6.29;47.31;99545.63;5047948;28;20240;-70
2022/03/05 11:20:14;;;;;;;17.48;11.68;;;;;;;6.02;46.74;99511.44;5047555;28;20064;-70
2022/03/05 11:22:49;;;;;;;20.60;12.05;;;;;;;6.12;47.03;99547.97;5047533;28;20116;-69
2022/03/05 11:25:25;;;;;;;22.92;13.38;;;;;;;5.62;46.96;99479.50;5048121;28;20041;-70
2022/03/05 11:28:03;;;;;;;17.92;11.48;;;;;;;6.05;46.57;99540.28;5047885;28;20091;-70
2022/03/05 11:30:44;;;;;;;19.73;13.73;;;;;;;5.99;46.12;99542.28;5047777;28;20099;-70
2022/03/05 11:33:22;;;;;;;16.52;11.82;;;;;;;5.97;46.22;99547.59;5047471;28;20087;-71
2022/03/05 11:36:03;;;;;;;16.48;11.18;;;;;;;5.83;45.92;99502.47;5047199;28;20088;-70
2022/03/05 11:38:37;;;;;;;19.67;13.68;;;;;;;6.00;46.52;99529.06;5047624;28;20092;-69
2022/03/05 11:41:25;;;;;;;16.08;10.98;;;;;;;5.95;44.93;99528.34;5047072;28;20200;-70
2022/03/05 11:44:12;;;;;;;18.88;12.57;;;;;;;5.95;44.93;99527.50;5047174;28;20042;-69
2022/03/05 11:46:44;;;;;;;17.98;12.75;;;;;;;5.92;46.09;99520.56;5047246;28;20088;-69
2022/03/05 11:49:17;;;;;;;16.30;10.95;;;;;;;5.90;45.78;99518.91;5047289;28;20063;-70